Time;durP1;ratioP1;P1;durP2;ratioP2;P2;SDS_P1;SDS_P2;PMS_P1;PMS_P2;Temp;Humidity;BMP_temperature;BMP_pressure;BME280_temperature;BME280_humidity;BME280_pressure;Samples;Min_cycle;Max_cycle;Signal;HPM_P1;HPM_P2
2021/12/18 00:02:14;;;;;;;11.20;4.80;;;;;;;2.09;71.24;99013.05;24466;1356;3027131;-63
2021/12/18 00:04:43;;;;;;;8.30;4.60;;;;;;;2.04;71.03;99011.98;24432;1359;3030817;-63
2021/12/18 00:07:13;;;;;;;8.60;4.10;;;;;;;2.09;70.88;99011.14;24447;1361;3048561;-62
2021/12/18 00:09:42;;;;;;;7.30;4.30;;;;;;;2.10;71.10;99008.54;24431;1358;3028555;-64
2021/12/18 00:12:11;;;;;;;8.10;3.30;;;;;;;2.03;70.97;99006.66;24416;1358;3066631;-62
2021/12/18 00:14:40;;;;;;;10.40;4.40;;;;;;;1.89;71.16;99008.36;24447;1362;3028126;-64
2021/12/18 00:17:09;;;;;;;7.00;3.80;;;;;;;1.93;71.46;99011.33;24418;1359;3053046;-62
2021/12/18 00:19:51;;;;;;;6.70;3.60;;;;;;;1.95;72.36;99016.97;24427;1359;3071682;-64
2021/12/18 00:22:20;;;;;;;9.30;3.90;;;;;;;2.56;70.59;99009.54;24439;1358;3026733;-63
2021/12/18 00:24:49;;;;;;;6.60;2.90;;;;;;;3.10;68.66;99003.44;24420;1356;3050837;-64
2021/12/18 00:27:17;;;;;;;6.20;3.40;;;;;;;3.15;67.54;99004.67;24406;1361;3027030;-62
2021/12/18 00:29:47;;;;;;;7.40;3.40;;;;;;;2.97;67.98;99011.71;24434;1356;3056007;-66
2021/12/18 00:32:16;;;;;;;9.70;4.10;;;;;;;2.82;68.65;99010.03;24435;1359;3026335;-63
2021/12/18 00:34:45;;;;;;;7.50;4.10;;;;;;;2.67;69.12;99014.38;24386;1356;3049801;-64
2021/12/18 00:37:14;;;;;;;9.30;4.30;;;;;;;2.35;70.44;99019.80;24470;1356;3027082;-61
2021/12/18 00:39:54;;;;;;;6.50;4.20;;;;;;;2.20;71.29;99020.12;24427;1358;3059288;-63
2021/12/18 00:42:38;;;;;;;6.50;4.30;;;;;;;2.11;71.96;99017.82;24444;1358;3051106;-62
2021/12/18 00:45:09;;;;;;;6.30;3.70;;;;;;;2.06;72.37;99018.69;24432;1357;3053184;-63
2021/12/18 00:47:38;;;;;;;6.00;4.00;;;;;;;1.95;72.94;99018.19;24477;1362;3028279;-62
2021/12/18 00:50:10;;;;;;;7.10;3.50;;;;;;;1.85;73.94;99024.88;24429;1363;3026474;-62
2021/12/18 00:52:39;;;;;;;7.40;4.10;;;;;;;2.34;73.20;99025.87;24405;1356;3029762;-63
2021/12/18 00:55:09;;;;;;;8.10;4.20;;;;;;;2.71;71.97;99017.52;24474;1361;3026965;-62
2021/12/18 00:57:38;;;;;;;8.60;5.20;;;;;;;2.68;71.83;99029.00;24423;1354;3028234;-63
2021/12/18 01:00:09;;;;;;;9.10;5.30;;;;;;;2.49;72.92;99027.27;24400;1360;3027114;-63
2021/12/18 01:02:43;;;;;;;12.10;6.50;;;;;;;2.29;74.06;99031.04;24445;1356;3054681;-63
2021/12/18 01:05:12;;;;;;;12.30;5.40;;;;;;;2.14;74.85;99033.29;24483;1361;3026139;-63
2021/12/18 01:07:43;;;;;;;9.90;5.90;;;;;;;1.96;76.22;99024.17;24434;1358;3026974;-64
2021/12/18 01:10:33;;;;;;;11.60;5.80;;;;;;;1.93;76.29;99030.65;24433;1362;3027976;-62
2021/12/18 01:13:03;;;;;;;8.30;4.80;;;;;;;1.87;77.48;99026.55;24459;1356;3052957;-63
2021/12/18 01:15:41;;;;;;;7.80;4.20;;;;;;;2.36;76.18;99028.91;24479;1358;3026736;-63
2021/12/18 01:23:46;;;;;;;9.30;4.80;;;;;;;2.20;76.55;99023.58;24419;1363;3053849;-63
2021/12/18 01:26:15;;;;;;;10.90;6.20;;;;;;;2.11;76.90;99035.61;24440;1363;3026527;-63
2021/12/18 01:28:44;;;;;;;9.60;5.50;;;;;;;1.82;78.02;99039.83;24458;1362;3055685;-63
2021/12/18 01:31:13;;;;;;;7.50;4.80;;;;;;;1.72;78.81;99035.83;24425;1361;3026254;-63
2021/12/18 01:33:44;;;;;;;8.30;4.60;;;;;;;2.15;77.92;99042.22;24399;1356;3052265;-63
2021/12/18 01:36:13;;;;;;;7.40;4.50;;;;;;;2.40;77.00;99040.89;24465;1353;3026777;-62
2021/12/18 01:38:42;;;;;;;11.20;4.70;;;;;;;2.48;76.05;99039.92;24440;1363;3055822;-62
2021/12/18 01:41:11;;;;;;;9.10;5.20;;;;;;;2.21;76.48;99046.16;24437;1361;3026456;-62
2021/12/18 01:52:15;;;;;;;8.70;5.30;;;;;;;1.76;78.76;99053.98;24424;1362;3055965;-64
2021/12/18 01:54:45;;;;;;;7.00;4.60;;;;;;;2.18;77.94;99048.00;24398;1363;3051545;-63
2021/12/18 01:57:14;;;;;;;8.00;4.90;;;;;;;2.63;76.13;99048.73;24430;1365;3026685;-63
2021/12/18 01:59:47;;;;;;;7.40;4.80;;;;;;;2.48;75.83;99053.76;24465;1363;3027608;-63
2021/12/18 02:02:16;;;;;;;5.70;4.20;;;;;;;2.37;76.22;99050.67;24487;1359;3027452;-62
2021/12/18 02:04:46;;;;;;;9.10;5.40;;;;;;;2.19;76.34;99057.61;24447;1363;3026160;-63
2021/12/18 02:07:16;;;;;;;8.90;5.80;;;;;;;1.88;77.47;99063.47;24436;1362;3026052;-64
2021/12/18 02:10:05;;;;;;;6.80;4.20;;;;;;;1.69;78.28;99061.66;24438;1360;3026473;-65
2021/12/18 02:13:05;;;;;;;5.90;4.40;;;;;;;1.62;78.79;99068.25;24436;1365;3054731;-65
2021/12/18 02:21:07;;;;;;;7.50;4.10;;;;;;;2.32;75.24;99058.06;24363;1362;3056004;-63
2021/12/18 02:23:40;;;;;;;6.50;4.10;;;;;;;2.27;75.29;99056.70;24404;1359;3051195;-64
2021/12/18 02:26:09;;;;;;;6.90;4.50;;;;;;;2.13;75.38;99063.71;24401;1363;3026288;-64
2021/12/18 02:28:39;;;;;;;7.30;4.80;;;;;;;1.81;75.84;99068.69;24385;1363;3027104;-62
2021/12/18 02:31:08;;;;;;;6.50;4.40;;;;;;;1.59;76.91;99069.89;24367;1353;3027270;-63
2021/12/18 02:33:37;;;;;;;6.20;4.10;;;;;;;1.39;77.63;99075.98;24443;1357;3026516;-64
2021/12/18 02:36:08;;;;;;;7.90;4.50;;;;;;;1.83;76.88;99073.98;24430;1362;3048352;-62
2021/12/18 02:41:27;;;;;;;9.50;4.20;;;;;;;2.29;74.46;99077.36;24419;1363;3053086;-64
2021/12/18 02:44:04;;;;;;;7.10;4.60;;;;;;;2.00;75.22;99079.16;24460;1359;3058765;-64
2021/12/18 02:46:35;;;;;;;7.40;4.60;;;;;;;1.75;76.25;99087.70;24442;1359;3051166;-62
2021/12/18 02:49:06;;;;;;;9.00;5.80;;;;;;;1.60;76.76;99085.39;24446;1365;3028299;-62
2021/12/18 02:51:35;;;;;;;7.70;5.10;;;;;;;1.55;77.05;99090.39;24444;1363;3026672;-62
2021/12/18 02:54:04;;;;;;;8.40;4.50;;;;;;;1.31;77.91;99092.80;24449;1359;3027172;-62
2021/12/18 02:56:34;;;;;;;8.20;5.10;;;;;;;1.21;78.68;99092.05;24428;1360;3055383;-63
2021/12/18 02:59:06;;;;;;;8.90;5.30;;;;;;;1.79;77.44;99085.69;24438;1362;3027435;-63
2021/12/18 03:01:38;;;;;;;9.90;5.40;;;;;;;2.03;75.84;99083.23;24376;1365;3026388;-61
2021/12/18 03:04:32;;;;;;;9.50;5.30;;;;;;;1.98;75.78;99089.75;24425;1366;3027019;-63
2021/12/18 03:07:04;;;;;;;6.80;4.10;;;;;;;1.79;76.11;99089.48;24441;1359;3055245;-65
2021/12/18 03:26:00;;;;;;;11.40;5.20;;;;;;;2.06;73.97;99110.41;24438;1363;3026714;-63
2021/12/18 03:28:30;;;;;;;9.30;5.00;;;;;;;1.89;74.03;99111.10;24441;1364;3051388;-63
2021/12/18 03:30:59;;;;;;;10.40;5.20;;;;;;;1.85;74.43;99117.45;24412;1362;3026950;-62
2021/12/18 03:33:28;;;;;;;10.70;5.50;;;;;;;1.66;75.15;99129.42;24453;1359;3026913;-62
2021/12/18 03:35:57;;;;;;;10.10;5.50;;;;;;;1.43;75.96;99130.08;24430;1359;3050424;-62
2021/12/18 03:38:27;;;;;;;10.80;6.50;;;;;;;1.27;76.38;99133.99;24413;1359;3028788;-62
2021/12/18 03:40:56;;;;;;;7.10;4.10;;;;;;;1.23;76.56;99132.37;24443;1363;3026909;-64
2021/12/18 03:43:25;;;;;;;7.10;4.20;;;;;;;1.74;75.38;99135.91;24422;1359;3028334;-63
2021/12/18 03:45:54;;;;;;;6.30;4.20;;;;;;;1.97;74.13;99134.20;24404;1362;3070686;-62
2021/12/18 03:48:23;;;;;;;8.90;5.10;;;;;;;2.02;73.75;99135.77;24423;1363;3028881;-61
2021/12/18 03:50:53;;;;;;;10.90;5.00;;;;;;;1.89;73.98;99133.05;24456;1363;3053948;-63
2021/12/18 03:53:24;;;;;;;7.90;5.30;;;;;;;1.70;74.76;99139.81;24183;1358;3359622;-62
2021/12/18 03:55:53;;;;;;;8.70;4.80;;;;;;;1.52;75.18;99139.33;24434;1361;3026224;-62
2021/12/18 03:58:21;;;;;;;11.10;5.50;;;;;;;1.32;76.29;99142.98;24449;1360;3052160;-62
2021/12/18 04:00:51;;;;;;;9.90;5.50;;;;;;;1.22;76.33;99143.77;24390;1363;3026585;-64
2021/12/18 04:03:20;;;;;;;9.10;4.90;;;;;;;1.07;77.18;99146.27;24428;1359;3026546;-66
2021/12/18 04:05:49;;;;;;;8.10;4.20;;;;;;;1.64;75.69;99143.46;24432;1361;3049421;-64
2021/12/18 04:08:19;;;;;;;7.50;4.70;;;;;;;1.93;74.28;99147.10;24402;1365;3026384;-62
2021/12/18 04:10:48;;;;;;;7.30;4.00;;;;;;;1.94;73.68;99142.55;24425;1362;3027124;-62
2021/12/18 04:13:18;;;;;;;10.30;4.80;;;;;;;1.76;74.12;99153.81;24429;1359;3053416;-64
2021/12/18 04:15:47;;;;;;;8.40;4.70;;;;;;;1.59;74.62;99151.02;24441;1361;3028266;-63
2021/12/18 04:18:15;;;;;;;7.40;3.90;;;;;;;1.48;75.29;99152.02;24417;1363;3052522;-63
2021/12/18 04:20:44;;;;;;;9.80;4.30;;;;;;;1.32;75.38;99153.36;24475;1357;3030748;-63
2021/12/18 04:23:14;;;;;;;8.70;5.20;;;;;;;1.21;75.49;99161.58;24410;1363;3052229;-63
2021/12/18 04:25:43;;;;;;;7.40;4.50;;;;;;;1.20;75.41;99164.02;24466;1357;3026415;-63
2021/12/18 04:28:12;;;;;;;6.90;4.10;;;;;;;1.20;75.22;99170.06;24462;1363;3056136;-62
2021/12/18 04:30:41;;;;;;;5.90;4.00;;;;;;;1.73;74.32;99171.86;24428;1359;3025937;-62
2021/12/18 04:33:11;;;;;;;6.30;3.70;;;;;;;2.25;71.98;99172.18;24428;1362;3053927;-63
2021/12/18 04:35:40;;;;;;;7.90;4.00;;;;;;;2.27;71.05;99171.63;24459;1358;3026813;-64
2021/12/18 04:38:09;;;;;;;8.70;3.90;;;;;;;2.24;70.84;99175.00;24471;1357;3051934;-64
2021/12/18 04:40:41;;;;;;;6.80;4.20;;;;;;;1.88;71.75;99184.38;24427;1361;3027017;-63
2021/12/18 04:43:10;;;;;;;8.00;3.50;;;;;;;1.63;72.32;99190.63;24440;1366;3028634;-62
2021/12/18 04:45:41;;;;;;;7.20;3.90;;;;;;;1.46;72.70;99194.02;24479;1359;3026122;-63
2021/12/18 04:48:10;;;;;;;4.90;3.30;;;;;;;1.47;72.99;99191.25;24484;1362;3026268;-62
2021/12/18 04:50:39;;;;;;;6.10;3.70;;;;;;;1.26;73.58;99202.33;24421;1358;3056096;-63
2021/12/18 04:53:14;;;;;;;7.30;3.80;;;;;;;1.03;74.12;99198.13;24426;1359;3052808;-64
2021/12/18 04:55:43;;;;;;;8.50;4.00;;;;;;;0.98;74.03;99203.08;24449;1360;3026236;-62
2021/12/18 04:58:12;;;;;;;4.70;3.10;;;;;;;1.12;73.83;99205.98;24476;1360;3058028;-62
2021/12/18 05:00:46;;;;;;;6.80;3.30;;;;;;;1.69;72.11;99203.40;24423;1360;3026731;-62
2021/12/18 05:03:17;;;;;;;5.90;3.40;;;;;;;2.20;69.31;99201.91;24444;1354;3027184;-62
2021/12/18 05:05:46;;;;;;;4.10;2.90;;;;;;;2.17;69.08;99202.88;24459;1359;3026749;-63
2021/12/18 05:08:16;;;;;;;5.00;2.50;;;;;;;2.02;69.23;99209.36;24422;1356;3027184;-62
2021/12/18 05:10:45;;;;;;;4.90;3.10;;;;;;;1.77;69.93;99217.16;24473;1359;3026691;-63
2021/12/18 05:13:15;;;;;;;6.00;3.40;;;;;;;1.52;70.80;99219.23;24441;1358;3053341;-63
2021/12/18 05:15:44;;;;;;;5.40;2.80;;;;;;;1.43;71.34;99219.84;24436;1363;3027594;-63
2021/12/18 05:18:13;;;;;;;5.50;3.60;;;;;;;1.40;72.05;99225.97;24452;1360;3026324;-61
2021/12/18 05:20:42;;;;;;;7.10;3.50;;;;;;;1.26;72.78;99232.19;24438;1356;3052835;-62
2021/12/18 05:23:11;;;;;;;6.20;4.00;;;;;;;1.21;73.41;99225.77;24405;1357;3027250;-64
2021/12/18 05:25:40;;;;;;;8.00;3.70;;;;;;;1.08;74.17;99227.66;24411;1365;3026697;-63
2021/12/18 05:28:09;;;;;;;5.90;3.10;;;;;;;1.05;74.88;99227.03;24448;1359;3053706;-62
2021/12/18 05:30:38;;;;;;;6.50;3.30;;;;;;;1.67;73.54;99233.52;24441;1353;3026651;-63
2021/12/18 05:33:08;;;;;;;7.90;3.80;;;;;;;1.93;72.10;99230.70;24451;1362;3055024;-63
2021/12/18 05:35:38;;;;;;;8.40;4.30;;;;;;;1.96;71.97;99239.06;24432;1356;3026524;-63
2021/12/18 05:38:07;;;;;;;8.20;3.90;;;;;;;1.85;72.01;99244.55;24450;1359;3049663;-63
2021/12/18 05:40:37;;;;;;;6.50;4.30;;;;;;;1.81;72.35;99242.27;24427;1358;3026914;-62
2021/12/18 05:43:07;;;;;;;7.30;4.70;;;;;;;1.69;72.54;99250.89;24469;1356;3026616;-63
2021/12/18 05:45:37;;;;;;;8.50;4.40;;;;;;;1.47;73.48;99256.49;24414;1359;3026483;-62
2021/12/18 05:48:06;;;;;;;7.90;4.30;;;;;;;1.35;73.51;99256.46;24415;1358;3028936;-62
2021/12/18 05:50:37;;;;;;;8.00;4.10;;;;;;;1.23;73.92;99257.11;24445;1358;3026552;-62
2021/12/18 05:53:06;;;;;;;7.80;3.70;;;;;;;1.23;73.87;99260.92;24414;1363;3027371;-62
2021/12/18 05:55:35;;;;;;;6.80;3.60;;;;;;;1.26;74.17;99268.10;24451;1358;3048577;-62
2021/12/18 05:58:03;;;;;;;6.60;3.50;;;;;;;1.83;72.78;99268.10;24454;1360;3026429;-63
2021/12/18 06:00:33;;;;;;;12.20;3.50;;;;;;;2.23;70.48;99274.92;24428;1363;3071204;-64
2021/12/18 06:03:02;;;;;;;8.30;4.00;;;;;;;2.22;70.02;99272.02;24469;1362;3026704;-64
2021/12/18 06:05:31;;;;;;;10.40;4.00;;;;;;;2.16;69.91;99277.02;24416;1362;3053770;-64
2021/12/18 06:08:02;;;;;;;6.70;3.30;;;;;;;1.97;70.55;99280.00;24425;1361;3026802;-63
2021/12/18 06:10:33;;;;;;;7.30;4.10;;;;;;;1.72;71.56;99284.83;24449;1357;3056530;-61
2021/12/18 06:13:03;;;;;;;9.10;5.20;;;;;;;1.55;72.07;99287.89;24471;1358;3026896;-64
2021/12/18 06:15:32;;;;;;;8.40;4.90;;;;;;;1.51;72.83;99287.80;24410;1362;3028340;-62
2021/12/18 06:18:01;;;;;;;8.30;5.20;;;;;;;1.45;73.31;99291.08;24457;1361;3026440;-62
2021/12/18 06:20:30;;;;;;;8.30;4.50;;;;;;;1.27;73.96;99292.04;24438;1357;3052640;-65
2021/12/18 06:23:00;;;;;;;9.60;5.00;;;;;;;1.24;74.49;99300.06;24410;1356;3026926;-65
2021/12/18 06:25:29;;;;;;;7.70;4.30;;;;;;;1.67;73.93;99297.05;24408;1360;3027034;-62
2021/12/18 06:27:58;;;;;;;7.00;4.10;;;;;;;2.01;72.49;99304.41;24457;1356;3029409;-63
2021/12/18 06:30:27;;;;;;;9.30;5.10;;;;;;;1.92;72.27;99307.92;24426;1358;3070129;-64
2021/12/18 06:32:56;;;;;;;8.40;4.30;;;;;;;1.91;72.47;99312.46;24457;1356;3026800;-65
2021/12/18 06:35:25;;;;;;;8.80;5.20;;;;;;;1.73;73.09;99315.19;24440;1361;3051171;-62
2021/12/18 06:37:55;;;;;;;8.70;5.10;;;;;;;1.60;73.40;99310.86;24427;1361;3026598;-63
2021/12/18 06:40:23;;;;;;;10.90;5.40;;;;;;;1.52;73.99;99309.70;24437;1356;3028502;-63
2021/12/18 06:42:52;;;;;;;9.20;5.00;;;;;;;1.31;74.58;99315.41;24417;1356;3053589;-64
2021/12/18 06:45:21;;;;;;;9.20;5.50;;;;;;;1.25;75.15;99323.32;24413;1359;3026753;-64
2021/12/18 06:47:51;;;;;;;9.20;5.10;;;;;;;1.25;75.24;99320.39;24430;1361;3051945;-63
2021/12/18 06:50:20;;;;;;;9.10;4.80;;;;;;;1.79;74.07;99319.69;24435;1357;3030670;-65
2021/12/18 06:52:49;;;;;;;7.70;4.50;;;;;;;2.17;72.17;99322.61;24418;1364;3026370;-62
2021/12/18 06:55:19;;;;;;;6.70;4.50;;;;;;;2.15;71.82;99325.08;24424;1363;3055809;-65
2021/12/18 06:57:48;;;;;;;10.30;5.00;;;;;;;1.99;72.33;99324.00;24431;1359;3026762;-63
2021/12/18 07:00:18;;;;;;;9.50;5.70;;;;;;;1.76;73.00;99335.14;24442;1356;3049152;-63
2021/12/18 07:02:48;;;;;;;9.50;5.10;;;;;;;1.57;73.48;99334.42;24419;1359;3026652;-64
2021/12/18 07:05:17;;;;;;;9.30;6.00;;;;;;;1.38;74.57;99334.41;24468;1357;3027579;-63
2021/12/18 07:07:46;;;;;;;10.00;5.60;;;;;;;1.33;74.90;99338.48;24404;1363;3051193;-63
2021/12/18 07:10:15;;;;;;;8.30;5.30;;;;;;;1.25;75.15;99342.83;24422;1356;3026617;-63
2021/12/18 07:12:44;;;;;;;5.40;3.80;;;;;;;1.19;75.76;99352.13;24452;1357;3026065;-63
2021/12/18 07:15:13;;;;;;;6.80;4.30;;;;;;;1.69;74.90;99341.02;24422;1356;3049386;-63
2021/12/18 07:17:42;;;;;;;8.70;4.50;;;;;;;2.24;72.82;99346.27;24395;1359;3030255;-64
2021/12/18 07:20:11;;;;;;;8.30;4.90;;;;;;;2.21;72.39;99345.50;24423;1360;3058949;-64
2021/12/18 07:22:41;;;;;;;7.90;5.00;;;;;;;1.93;73.20;99346.25;24408;1357;3026820;-63
2021/12/18 07:25:10;;;;;;;8.50;5.50;;;;;;;1.79;73.95;99346.63;24425;1363;3054440;-64
2021/12/18 07:27:39;;;;;;;7.60;5.00;;;;;;;1.59;74.29;99353.38;24434;1356;3028353;-62
2021/12/18 07:30:10;;;;;;;9.00;5.80;;;;;;;1.39;76.01;99358.19;24433;1358;3026479;-62
2021/12/18 07:32:39;;;;;;;8.30;5.50;;;;;;;1.42;75.45;99351.54;24398;1360;3051408;-67
2021/12/18 07:35:10;;;;;;;6.60;4.10;;;;;;;1.42;76.04;99353.78;24482;1360;3026676;-64
2021/12/18 07:37:39;;;;;;;9.80;5.40;;;;;;;1.91;75.04;99356.87;24419;1356;3026960;-64
2021/12/18 07:40:09;;;;;;;8.30;5.10;;;;;;;2.44;73.04;99359.35;24454;1360;3026489;-64
2021/12/18 07:42:42;;;;;;;;;;;;;;;2.26;72.88;99360.20;24436;1356;3052682;-70
2021/12/18 07:45:11;;;;;;;9.10;5.70;;;;;;;2.24;72.98;99361.65;24442;1356;3029952;-63
2021/12/18 07:47:40;;;;;;;10.70;5.30;;;;;;;1.97;73.45;99367.57;24445;1360;3053077;-65
2021/12/18 07:50:17;;;;;;;6.40;5.10;;;;;;;1.79;74.18;99370.13;24448;1357;3026444;-63
2021/12/18 07:52:47;;;;;;;8.10;4.90;;;;;;;1.57;74.48;99365.17;24472;1363;3051408;-62
2021/12/18 07:55:17;;;;;;;10.00;5.40;;;;;;;1.54;74.72;99368.01;24429;1357;3026475;-63
2021/12/18 07:57:46;;;;;;;7.90;4.60;;;;;;;1.38;75.24;99374.95;24434;1356;3028108;-66
2021/12/18 08:00:15;;;;;;;7.20;5.00;;;;;;;1.35;75.65;99378.48;24389;1357;3052167;-64
2021/12/18 08:02:44;;;;;;;7.80;4.30;;;;;;;1.86;74.52;99378.39;24454;1361;3028804;-66
2021/12/18 08:05:14;;;;;;;8.50;3.50;;;;;;;2.25;72.85;99370.94;24441;1357;3027633;-68
2021/12/18 08:07:43;;;;;;;5.20;3.80;;;;;;;2.06;72.97;99372.00;24452;1355;3050245;-65
2021/12/18 08:10:12;;;;;;;7.60;4.10;;;;;;;1.90;73.38;99373.46;24444;1354;3027069;-68
2021/12/18 08:12:41;;;;;;;8.50;4.10;;;;;;;1.79;73.85;99368.06;24440;1360;3057330;-68
2021/12/18 08:15:11;;;;;;;6.70;4.70;;;;;;;1.62;74.22;99378.34;24411;1360;3026131;-68
2021/12/18 08:17:40;;;;;;;6.80;4.40;;;;;;;1.53;74.80;99371.14;24479;1360;3026692;-70
2021/12/18 08:20:09;;;;;;;6.90;4.70;;;;;;;1.42;75.03;99376.94;24432;1354;3055133;-66
2021/12/18 08:22:39;;;;;;;7.10;4.70;;;;;;;1.36;75.47;99369.64;24396;1359;3026795;-67
2021/12/18 08:25:08;;;;;;;8.20;4.10;;;;;;;1.41;75.67;99371.27;24464;1360;3026661;-65
2021/12/18 08:27:38;;;;;;;8.80;3.80;;;;;;;1.98;74.21;99363.39;24867;1360;3058908;-66
2021/12/18 08:30:08;;;;;;;7.20;4.00;;;;;;;2.57;72.07;99365.91;24417;1356;3026693;-67
2021/12/18 08:32:40;;;;;;;4.80;3.50;;;;;;;2.59;70.93;99359.26;24435;1357;3053167;-66
2021/12/18 08:35:09;;;;;;;8.50;4.60;;;;;;;2.38;71.28;99368.52;24469;1360;3027344;-67
2021/12/18 08:37:38;;;;;;;8.30;4.40;;;;;;;2.06;72.13;99368.02;24443;1357;3026908;-65
2021/12/18 08:40:08;;;;;;;8.50;4.50;;;;;;;1.94;72.56;99368.52;24442;1359;3050967;-69
2021/12/18 08:42:37;;;;;;;6.60;4.30;;;;;;;1.76;73.14;99374.00;24442;1357;3026696;-66
2021/12/18 08:45:07;;;;;;;7.10;3.80;;;;;;;1.59;73.42;99375.13;24448;1357;3026673;-68
2021/12/18 08:47:36;;;;;;;9.80;4.80;;;;;;;1.52;73.64;99371.34;24428;1359;3027391;-65
2021/12/18 08:50:07;;;;;;;7.60;4.30;;;;;;;1.56;73.70;99362.77;24418;1357;3026865;-67
2021/12/18 08:52:39;;;;;;;6.30;4.10;;;;;;;1.53;73.44;99371.66;24421;1357;3052188;-66
2021/12/18 08:55:08;;;;;;;6.30;4.40;;;;;;;1.44;72.72;99363.24;24459;1357;3026143;-65
2021/12/18 08:57:37;;;;;;;5.40;3.70;;;;;;;1.48;73.58;99370.55;24442;1357;3058310;-69
2021/12/18 09:00:09;;;;;;;9.30;4.00;;;;;;;2.08;71.90;99367.11;24446;1359;3026539;-65
2021/12/18 09:02:40;;;;;;;6.20;3.80;;;;;;;2.67;69.94;99368.02;24444;1363;3052065;-65
2021/12/18 09:05:09;;;;;;;7.20;3.90;;;;;;;2.69;69.42;99367.45;24447;1357;3026526;-65
2021/12/18 09:07:38;;;;;;;7.40;4.30;;;;;;;2.70;69.30;99370.69;24431;1357;3026409;-65
2021/12/18 09:10:08;;;;;;;6.20;3.50;;;;;;;2.49;69.21;99366.45;24439;1357;3054090;-66
2021/12/18 09:12:37;;;;;;;5.40;3.80;;;;;;;1.96;70.56;99373.66;24428;1356;3028222;-67
2021/12/18 09:15:06;;;;;;;8.10;4.90;;;;;;;1.98;71.07;99371.17;24430;1357;3026165;-65
2021/12/18 09:17:36;;;;;;;7.20;4.40;;;;;;;1.93;69.85;99369.92;24446;1360;3053867;-65
2021/12/18 09:20:06;;;;;;;5.20;3.40;;;;;;;1.70;71.13;99379.86;24455;1356;3026460;-65
2021/12/18 09:22:37;;;;;;;7.50;4.10;;;;;;;1.46;71.49;99382.38;24429;1356;3026535;-65
2021/12/18 09:25:07;;;;;;;6.30;3.90;;;;;;;1.49;71.86;99380.55;24413;1357;3027089;-68
2021/12/18 09:27:36;;;;;;;6.50;4.10;;;;;;;1.50;72.17;99376.57;24449;1357;3058282;-64
2021/12/18 09:30:09;;;;;;;10.00;4.30;;;;;;;1.60;71.67;99375.78;24412;1353;3026386;-67
2021/12/18 09:32:38;;;;;;;5.60;4.00;;;;;;;1.63;71.59;99377.45;24464;1357;3026756;-66
2021/12/18 09:35:08;;;;;;;6.10;3.40;;;;;;;1.63;72.06;99379.69;24420;1361;3026832;-65
2021/12/18 09:37:38;;;;;;;6.10;3.50;;;;;;;2.21;69.80;99375.22;24434;1360;3027589;-65
2021/12/18 09:40:07;;;;;;;5.00;3.40;;;;;;;2.96;67.59;99374.23;24435;1361;3027626;-67
2021/12/18 09:42:37;;;;;;;5.60;3.10;;;;;;;3.09;66.31;99375.39;24441;1356;3054265;-65
2021/12/18 09:45:07;;;;;;;5.30;3.60;;;;;;;2.94;66.41;99378.11;24425;1356;3027337;-67
2021/12/18 09:47:38;;;;;;;8.80;3.50;;;;;;;2.77;66.99;99375.67;24482;1359;3027143;-65
2021/12/18 09:50:07;;;;;;;6.10;3.70;;;;;;;2.67;67.06;99377.54;24448;1356;3026886;-66
2021/12/18 09:52:36;;;;;;;7.70;3.90;;;;;;;2.58;67.28;99375.54;24439;1361;3026846;-66
2021/12/18 09:55:06;;;;;;;5.20;3.60;;;;;;;2.37;67.01;99367.51;24421;1359;3026590;-67
2021/12/18 09:57:36;;;;;;;6.50;3.80;;;;;;;2.34;67.42;99366.21;24466;1360;3054192;-66
2021/12/18 10:00:11;;;;;;;11.10;3.90;;;;;;;2.36;66.78;99366.49;24441;1356;3026588;-67
2021/12/18 10:02:43;;;;;;;6.30;3.80;;;;;;;2.29;66.76;99363.61;24468;1357;3058807;-66
2021/12/18 10:05:27;;;;;;;5.20;3.40;;;;;;;2.31;66.48;99355.92;24429;1357;3027024;-67
2021/12/18 10:08:10;;;;;;;4.40;2.90;;;;;;;2.11;66.38;99357.52;24454;1356;3051747;-66
2021/12/18 10:10:57;;;;;;;5.50;3.20;;;;;;;2.00;66.83;99361.80;24420;1360;3058260;-65
2021/12/18 10:13:26;;;;;;;6.30;3.10;;;;;;;1.93;66.62;99361.83;24449;1358;3048835;-65
2021/12/18 10:16:11;;;;;;;6.00;3.60;;;;;;;1.93;66.60;99365.26;24445;1356;3026953;-66
2021/12/18 10:19:00;;;;;;;5.40;3.40;;;;;;;1.94;66.55;99363.16;24434;1361;3057886;-67
2021/12/18 10:21:29;;;;;;;5.60;3.70;;;;;;;1.99;66.35;99362.69;24442;1357;3026652;-67
2021/12/18 10:24:13;;;;;;;4.80;3.20;;;;;;;1.92;66.20;99367.03;24451;1358;3050309;-66
2021/12/18 10:26:43;;;;;;;4.50;2.90;;;;;;;1.71;66.16;99370.31;24448;1363;3059220;-67
2021/12/18 10:29:23;;;;;;;5.30;2.70;;;;;;;1.62;66.19;99367.63;24423;1357;3026748;-66
2021/12/18 10:31:52;;;;;;;5.10;2.80;;;;;;;1.55;66.69;99368.50;24423;1357;3052219;-67
2021/12/18 10:34:26;;;;;;;4.40;2.80;;;;;;;1.70;66.55;99364.33;24415;1360;3026612;-66
2021/12/18 10:37:07;;;;;;;5.40;3.10;;;;;;;1.62;67.01;99369.69;24429;1357;3048434;-65
2021/12/18 10:39:41;;;;;;;4.20;2.80;;;;;;;1.66;66.93;99361.30;24453;1361;3055299;-65
2021/12/18 10:42:28;;;;;;;5.80;2.60;;;;;;;1.68;66.67;99369.89;24446;1357;3027391;-65
2021/12/18 10:45:17;;;;;;;5.50;3.10;;;;;;;1.65;67.12;99363.22;24428;1353;3071336;-65
2021/12/18 10:48:03;;;;;;;4.80;2.70;;;;;;;1.62;67.22;99363.13;24437;1363;3051522;-65
2021/12/18 10:50:51;;;;;;;6.10;3.20;;;;;;;1.57;67.32;99365.17;24431;1357;3052638;-65
2021/12/18 10:53:22;;;;;;;5.60;2.90;;;;;;;1.53;67.63;99373.20;24457;1364;3051914;-65
2021/12/18 10:55:53;;;;;;;7.80;3.00;;;;;;;1.42;67.79;99363.45;24468;1356;3030651;-66
2021/12/18 10:58:30;;;;;;;4.10;2.60;;;;;;;1.38;68.12;99367.54;24460;1361;3027511;-65
2021/12/18 11:01:13;;;;;;;8.90;3.00;;;;;;;1.30;68.63;99363.92;24500;1358;3052589;-68
2021/12/18 11:03:43;;;;;;;4.20;2.40;;;;;;;1.34;68.59;99361.42;24460;1362;3053853;-66
2021/12/18 11:06:26;;;;;;;5.80;2.70;;;;;;;1.42;68.22;99359.68;24393;1361;3028401;-67
2021/12/18 11:08:58;;;;;;;4.20;2.50;;;;;;;1.47;68.27;99366.44;24440;1363;3049256;-64
2021/12/18 11:14:40;;;;;;;5.60;3.40;;;;;;;1.76;68.53;99363.13;24424;1357;3056096;-65
2021/12/18 11:17:12;;;;;;;6.60;3.70;;;;;;;1.54;70.03;99367.67;24460;1356;3027368;-66
2021/12/18 11:19:43;;;;;;;5.80;2.90;;;;;;;1.61;70.49;99368.34;24429;1360;3049266;-65
2021/12/18 11:22:16;;;;;;;6.20;3.90;;;;;;;2.37;69.58;99367.66;24431;1359;3026414;-67
2021/12/18 11:25:08;;;;;;;5.60;3.20;;;;;;;3.03;67.09;99364.35;24454;1357;3028829;-65
2021/12/18 11:27:38;;;;;;;8.70;3.90;;;;;;;2.86;67.21;99371.43;24446;1363;3071697;-67
2021/12/18 11:30:11;;;;;;;5.90;4.10;;;;;;;2.70;67.92;99375.19;24466;1356;3027276;-68
2021/12/18 11:32:43;;;;;;;5.90;3.30;;;;;;;2.53;68.58;99377.08;24437;1357;3055207;-65
2021/12/18 11:35:14;;;;;;;8.40;4.40;;;;;;;2.22;69.84;99379.86;24399;1362;3027102;-66
2021/12/18 11:37:45;;;;;;;6.40;3.90;;;;;;;2.18;69.78;99374.07;24385;1360;3027352;-68
2021/12/18 11:40:18;;;;;;;6.20;4.10;;;;;;;2.07;69.68;99373.35;24510;1352;3027183;-70
2021/12/18 11:42:47;;;;;;;7.40;3.00;;;;;;;2.09;70.03;99373.83;24521;1354;3027066;-67
2021/12/18 11:45:17;;;;;;;4.90;3.40;;;;;;;1.90;70.53;99373.83;24498;1355;3027374;-67
2021/12/18 11:47:54;;;;;;;6.00;4.10;;;;;;;1.87;70.78;99373.55;24493;1357;3026557;-66
2021/12/18 11:50:34;;;;;;;6.00;3.90;;;;;;;1.86;71.14;99367.19;24494;1357;3050973;-67
2021/12/18 11:53:08;;;;;;;6.90;3.90;;;;;;;1.84;71.66;99364.13;24319;1356;3319712;-68
2021/12/18 11:55:44;;;;;;;6.10;3.30;;;;;;;1.86;71.85;99368.58;24488;1351;3051216;-69
2021/12/18 11:58:14;;;;;;;4.80;2.80;;;;;;;2.62;70.09;99371.79;24511;1357;3056110;-67
2021/12/18 12:00:49;;;;;;;5.90;3.70;;;;;;;2.87;67.53;99366.91;24541;1353;3026201;-67
2021/12/18 12:03:40;;;;;;;6.00;3.50;;;;;;;3.03;67.13;99365.20;24501;1354;3071126;-67
2021/12/18 12:06:31;;;;;;;7.80;4.00;;;;;;;2.71;68.41;99366.67;24572;1353;3049123;-66
2021/12/18 12:09:54;;;;;;;5.70;3.70;;;;;;;2.49;68.90;99370.96;24573;1353;3055160;-66
2021/12/18 12:12:12;;;;;;;8.70;4.10;;;;;;;2.37;69.19;99368.89;24563;1353;3052522;-65
2021/12/18 12:14:43;;;;;;;8.10;4.30;;;;;;;2.16;70.29;99371.73;24545;1353;3026460;-67
2021/12/18 12:17:25;;;;;;;6.70;4.00;;;;;;;2.14;70.45;99373.34;24492;1354;3026647;-66
2021/12/18 12:19:59;;;;;;;5.90;3.80;;;;;;;2.07;70.99;99376.98;24520;1355;3055311;-67
2021/12/18 12:22:31;;;;;;;;;;;;;;;1.93;71.40;99384.64;24529;1358;3053865;-65
2021/12/18 12:25:00;;;;;;;6.80;4.20;;;;;;;1.70;72.46;99388.33;24541;1353;3026738;-67
2021/12/18 12:27:38;;;;;;;6.20;3.50;;;;;;;1.70;72.43;99386.60;24550;1353;3027496;-69